Portada
METAR-TAF:

METAR-TAF

Aeroports :

Taree, Austràlia

latitud: 31-53-19S, longitud: 152-30-50E, altitud: 12 m

Observació

L'informe es va fer fa 1 hora i 2 minuts, a les 10:00 UTC
Vent 4 kt del Oest/Sud-Oest, variant entre Sud/Sud-Oest i Oest
Temperatura 21°C
Humitat 94%
Pressió 1014 hPa
Visibilitat 10 km o més

METAR: YTRE 201000Z AUTO 24004KT 210V280 9999 // NCD 21/20 Q1014

Hora: 22:02 (11:02 UTC)

Pronòstic

L'informe es va fer fa 4 hores i 9 minuts, a les 06:53 UTC
Pronòstic vàlid del 20 a les 08 UTC al 20 a les 20 UTC
Vent 10 kt del Sud
Visibilitat 10 km o més
Núvols disperses a una alçada de 2000 ft
Núvols disperses a una alçada de 5000 ft
xàfecs de pluja
A partir de les 20 a les 1000 UTC
Vent 3 kt amb direcció variable
Visibilitat 10 km o més
Núvols disperses a una alçada de 1000 ft
Núvols disperses a una alçada de 2000 ft

TAF: YTRE 200653Z 2008/2020 18010KT 9999 -SHRA SCT020 SCT050 FM201000 VRB03KT 9999 SCT010 SCT020

Observacions i pronòstics meteorològics de més de 4000 aeroports (METAR i TAF).

Les estacions disponibles són els punts grocs i vermells al mapa.

Posi el ratolí al punt desitjat per veure el nom de l'estació.

Feu clic per veure les observacions i els pronòstics meteorològics.

Per canviar el mapa: feu clic els botons verds amb una creu de color negre per apropar; al botó verd amb un guió per allunyar la imatge; o en les fletxes verdes per a mapes adjacents.


METAR-TAF: